sensor_id;sensor_type;location;lat;lon;timestamp;P1;durP1;ratioP1;P2;durP2;ratioP2
19301;SDS011;9785;59.362;12.152;2022-11-15T00:01:16;1.80;;;0.37;;
19301;SDS011;9785;59.362;12.152;2022-11-15T00:03:45;0.40;;;0.40;;
19301;SDS011;9785;59.362;12.152;2022-11-15T00:06:13;1.13;;;0.40;;
19301;SDS011;9785;59.362;12.152;2022-11-15T00:08:43;0.40;;;0.40;;
19301;SDS011;9785;59.362;12.152;2022-11-15T00:11:12;2.83;;;0.40;;
19301;SDS011;9785;59.362;12.152;2022-11-15T00:13:40;0.43;;;0.43;;
19301;SDS011;9785;59.362;12.152;2022-11-15T00:16:11;0.10;;;0.10;;
19301;SDS011;9785;59.362;12.152;2022-11-15T00:18:40;2.37;;;0.40;;
19301;SDS011;9785;59.362;12.152;2022-11-15T00:21:16;3.00;;;0.30;;
19301;SDS011;9785;59.362;12.152;2022-11-15T00:23:46;0.30;;;0.30;;
19301;SDS011;9785;59.362;12.152;2022-11-15T00:26:14;0.20;;;0.20;;
19301;SDS011;9785;59.362;12.152;2022-11-15T00:28:43;0.10;;;0.10;;
19301;SDS011;9785;59.362;12.152;2022-11-15T00:31:13;0.10;;;0.10;;
19301;SDS011;9785;59.362;12.152;2022-11-15T00:33:42;0.27;;;0.27;;
19301;SDS011;9785;59.362;12.152;2022-11-15T00:36:11;0.10;;;0.10;;
19301;SDS011;9785;59.362;12.152;2022-11-15T00:38:40;0.27;;;0.20;;
19301;SDS011;9785;59.362;12.152;2022-11-15T00:41:10;0.70;;;0.30;;
19301;SDS011;9785;59.362;12.152;2022-11-15T00:43:38;0.17;;;0.17;;
19301;SDS011;9785;59.362;12.152;2022-11-15T00:46:10;5.27;;;0.30;;
19301;SDS011;9785;59.362;12.152;2022-11-15T00:48:38;0.57;;;0.30;;
19301;SDS011;9785;59.362;12.152;2022-11-15T00:51:07;0.20;;;0.20;;
19301;SDS011;9785;59.362;12.152;2022-11-15T00:53:38;0.20;;;0.20;;
19301;SDS011;9785;59.362;12.152;2022-11-15T00:56:06;0.20;;;0.20;;
19301;SDS011;9785;59.362;12.152;2022-11-15T00:58:36;1.30;;;0.27;;
19301;SDS011;9785;59.362;12.152;2022-11-15T01:01:05;0.50;;;0.20;;
19301;SDS011;9785;59.362;12.152;2022-11-15T01:03:34;0.30;;;0.30;;
19301;SDS011;9785;59.362;12.152;2022-11-15T01:06:03;0.20;;;0.20;;
19301;SDS011;9785;59.362;12.152;2022-11-15T01:08:32;0.20;;;0.20;;
19301;SDS011;9785;59.362;12.152;2022-11-15T01:11:01;0.93;;;0.30;;
19301;SDS011;9785;59.362;12.152;2022-11-15T01:13:30;0.77;;;0.27;;
19301;SDS011;9785;59.362;12.152;2022-11-15T01:16:04;0.30;;;0.30;;
19301;SDS011;9785;59.362;12.152;2022-11-15T01:18:33;0.30;;;0.27;;
19301;SDS011;9785;59.362;12.152;2022-11-15T01:21:04;0.37;;;0.37;;
19301;SDS011;9785;59.362;12.152;2022-11-15T01:23:33;0.97;;;0.30;;
19301;SDS011;9785;59.362;12.152;2022-11-15T01:26:02;2.27;;;0.30;;
19301;SDS011;9785;59.362;12.152;2022-11-15T01:28:31;1.50;;;0.40;;
19301;SDS011;9785;59.362;12.152;2022-11-15T01:31:03;1.80;;;0.30;;
19301;SDS011;9785;59.362;12.152;2022-11-15T01:33:33;2.73;;;0.47;;
19301;SDS011;9785;59.362;12.152;2022-11-15T01:36:03;0.30;;;0.30;;
19301;SDS011;9785;59.362;12.152;2022-11-15T01:38:32;2.00;;;0.57;;
19301;SDS011;9785;59.362;12.152;2022-11-15T01:41:00;0.50;;;0.40;;
19301;SDS011;9785;59.362;12.152;2022-11-15T01:43:30;0.33;;;0.33;;
19301;SDS011;9785;59.362;12.152;2022-11-15T01:46:00;0.50;;;0.50;;
19301;SDS011;9785;59.362;12.152;2022-11-15T01:48:32;0.30;;;0.30;;
19301;SDS011;9785;59.362;12.152;2022-11-15T01:51:02;0.40;;;0.40;;
19301;SDS011;9785;59.362;12.152;2022-11-15T01:53:32;0.47;;;0.40;;
19301;SDS011;9785;59.362;12.152;2022-11-15T01:56:02;0.53;;;0.53;;
19301;SDS011;9785;59.362;12.152;2022-11-15T01:58:31;0.40;;;0.40;;
19301;SDS011;9785;59.362;12.152;2022-11-15T02:01:00;0.53;;;0.27;;
19301;SDS011;9785;59.362;12.152;2022-11-15T02:03:31;1.53;;;0.40;;
19301;SDS011;9785;59.362;12.152;2022-11-15T02:06:03;0.20;;;0.20;;
19301;SDS011;9785;59.362;12.152;2022-11-15T02:08:32;0.73;;;0.50;;
19301;SDS011;9785;59.362;12.152;2022-11-15T02:11:00;0.60;;;0.47;;
19301;SDS011;9785;59.362;12.152;2022-11-15T02:13:29;0.60;;;0.60;;
19301;SDS011;9785;59.362;12.152;2022-11-15T02:15:59;3.33;;;0.50;;
19301;SDS011;9785;59.362;12.152;2022-11-15T02:18:31;0.83;;;0.70;;
19301;SDS011;9785;59.362;12.152;2022-11-15T02:21:05;2.43;;;0.40;;
19301;SDS011;9785;59.362;12.152;2022-11-15T02:23:50;0.50;;;0.50;;
19301;SDS011;9785;59.362;12.152;2022-11-15T02:26:28;1.23;;;0.70;;
19301;SDS011;9785;59.362;12.152;2022-11-15T02:29:01;0.63;;;0.63;;
19301;SDS011;9785;59.362;12.152;2022-11-15T02:31:33;1.00;;;0.50;;
19301;SDS011;9785;59.362;12.152;2022-11-15T02:34:05;1.40;;;0.60;;
19301;SDS011;9785;59.362;12.152;2022-11-15T02:36:40;0.83;;;0.83;;
19301;SDS011;9785;59.362;12.152;2022-11-15T02:39:10;0.80;;;0.80;;
19301;SDS011;9785;59.362;12.152;2022-11-15T02:41:45;0.70;;;0.70;;
19301;SDS011;9785;59.362;12.152;2022-11-15T02:44:17;0.83;;;0.83;;
19301;SDS011;9785;59.362;12.152;2022-11-15T02:46:48;1.43;;;0.60;;
19301;SDS011;9785;59.362;12.152;2022-11-15T02:49:35;0.83;;;0.60;;
19301;SDS011;9785;59.362;12.152;2022-11-15T02:52:05;0.87;;;0.53;;
19301;SDS011;9785;59.362;12.152;2022-11-15T02:54:34;0.50;;;0.50;;
19301;SDS011;9785;59.362;12.152;2022-11-15T02:57:03;0.60;;;0.60;;
19301;SDS011;9785;59.362;12.152;2022-11-15T02:59:37;0.87;;;0.40;;
19301;SDS011;9785;59.362;12.152;2022-11-15T03:02:15;0.50;;;0.50;;
19301;SDS011;9785;59.362;12.152;2022-11-15T03:04:49;0.80;;;0.50;;
19301;SDS011;9785;59.362;12.152;2022-11-15T03:07:22;1.13;;;0.40;;
19301;SDS011;9785;59.362;12.152;2022-11-15T03:09:56;0.50;;;0.50;;
19301;SDS011;9785;59.362;12.152;2022-11-15T03:12:30;0.47;;;0.47;;
19301;SDS011;9785;59.362;12.152;2022-11-15T03:15:05;4.73;;;0.30;;
19301;SDS011;9785;59.362;12.152;2022-11-15T03:17:36;0.10;;;0.10;;
19301;SDS011;9785;59.362;12.152;2022-11-15T03:20:06;0.37;;;0.37;;
19301;SDS011;9785;59.362;12.152;2022-11-15T03:22:36;0.20;;;0.20;;
19301;SDS011;9785;59.362;12.152;2022-11-15T03:25:07;0.10;;;0.10;;
19301;SDS011;9785;59.362;12.152;2022-11-15T03:27:37;0.20;;;0.20;;
19301;SDS011;9785;59.362;12.152;2022-11-15T03:30:08;0.20;;;0.20;;
19301;SDS011;9785;59.362;12.152;2022-11-15T03:32:39;0.23;;;0.23;;
19301;SDS011;9785;59.362;12.152;2022-11-15T03:35:09;0.40;;;0.40;;
19301;SDS011;9785;59.362;12.152;2022-11-15T03:37:40;0.40;;;0.40;;
19301;SDS011;9785;59.362;12.152;2022-11-15T03:40:09;0.63;;;0.20;;
19301;SDS011;9785;59.362;12.152;2022-11-15T03:42:39;0.40;;;0.40;;
19301;SDS011;9785;59.362;12.152;2022-11-15T03:45:12;0.23;;;0.23;;
19301;SDS011;9785;59.362;12.152;2022-11-15T03:47:45;5.53;;;0.37;;
19301;SDS011;9785;59.362;12.152;2022-11-15T03:50:16;0.30;;;0.30;;
19301;SDS011;9785;59.362;12.152;2022-11-15T03:52:46;0.93;;;0.40;;
19301;SDS011;9785;59.362;12.152;2022-11-15T03:55:16;0.53;;;0.53;;
19301;SDS011;9785;59.362;12.152;2022-11-15T03:57:45;0.30;;;0.30;;
19301;SDS011;9785;59.362;12.152;2022-11-15T04:00:14;0.63;;;0.63;;
19301;SDS011;9785;59.362;12.152;2022-11-15T04:02:44;0.37;;;0.37;;
19301;SDS011;9785;59.362;12.152;2022-11-15T04:05:13;0.40;;;0.40;;
19301;SDS011;9785;59.362;12.152;2022-11-15T04:07:41;2.80;;;0.60;;
19301;SDS011;9785;59.362;12.152;2022-11-15T04:10:10;0.23;;;0.23;;
19301;SDS011;9785;59.362;12.152;2022-11-15T04:12:40;0.30;;;0.30;;
19301;SDS011;9785;59.362;12.152;2022-11-15T04:15:10;0.40;;;0.40;;
19301;SDS011;9785;59.362;12.152;2022-11-15T04:17:40;0.40;;;0.40;;
19301;SDS011;9785;59.362;12.152;2022-11-15T04:20:11;0.20;;;0.20;;
19301;SDS011;9785;59.362;12.152;2022-11-15T04:22:58;0.30;;;0.30;;
19301;SDS011;9785;59.362;12.152;2022-11-15T04:25:45;0.33;;;0.33;;
19301;SDS011;9785;59.362;12.152;2022-11-15T04:28:15;0.30;;;0.30;;
19301;SDS011;9785;59.362;12.152;2022-11-15T04:30:44;0.30;;;0.30;;
19301;SDS011;9785;59.362;12.152;2022-11-15T04:33:12;0.20;;;0.20;;
19301;SDS011;9785;59.362;12.152;2022-11-15T04:35:42;0.30;;;0.30;;
19301;SDS011;9785;59.362;12.152;2022-11-15T04:38:31;2.43;;;0.13;;
19301;SDS011;9785;59.362;12.152;2022-11-15T04:40:59;0.60;;;0.17;;
19301;SDS011;9785;59.362;12.152;2022-11-15T04:43:28;0.23;;;0.23;;
19301;SDS011;9785;59.362;12.152;2022-11-15T04:45:57;0.20;;;0.20;;
19301;SDS011;9785;59.362;12.152;2022-11-15T04:48:26;1.90;;;0.30;;
19301;SDS011;9785;59.362;12.152;2022-11-15T04:50:56;0.50;;;0.30;;
19301;SDS011;9785;59.362;12.152;2022-11-15T04:53:24;0.30;;;0.20;;
19301;SDS011;9785;59.362;12.152;2022-11-15T04:55:53;0.40;;;0.20;;
19301;SDS011;9785;59.362;12.152;2022-11-15T04:58:21;0.60;;;0.30;;
19301;SDS011;9785;59.362;12.152;2022-11-15T05:00:50;0.20;;;0.20;;
19301;SDS011;9785;59.362;12.152;2022-11-15T05:03:19;0.20;;;0.20;;
19301;SDS011;9785;59.362;12.152;2022-11-15T05:06:06;0.30;;;0.30;;
19301;SDS011;9785;59.362;12.152;2022-11-15T05:08:35;0.30;;;0.30;;
19301;SDS011;9785;59.362;12.152;2022-11-15T05:11:03;0.20;;;0.20;;
19301;SDS011;9785;59.362;12.152;2022-11-15T05:13:32;0.23;;;0.23;;
19301;SDS011;9785;59.362;12.152;2022-11-15T05:16:01;0.40;;;0.40;;
19301;SDS011;9785;59.362;12.152;2022-11-15T05:18:29;0.13;;;0.13;;
19301;SDS011;9785;59.362;12.152;2022-11-15T05:21:02;0.20;;;0.20;;
19301;SDS011;9785;59.362;12.152;2022-11-15T05:23:32;0.20;;;0.20;;
19301;SDS011;9785;59.362;12.152;2022-11-15T05:26:01;0.20;;;0.20;;
19301;SDS011;9785;59.362;12.152;2022-11-15T05:28:34;0.10;;;0.10;;
19301;SDS011;9785;59.362;12.152;2022-11-15T05:31:04;0.07;;;0.07;;
19301;SDS011;9785;59.362;12.152;2022-11-15T05:33:33;0.83;;;0.20;;
19301;SDS011;9785;59.362;12.152;2022-11-15T05:36:02;1.23;;;0.10;;
19301;SDS011;9785;59.362;12.152;2022-11-15T05:38:33;0.63;;;0.20;;
19301;SDS011;9785;59.362;12.152;2022-11-15T05:41:02;1.80;;;0.30;;
19301;SDS011;9785;59.362;12.152;2022-11-15T05:43:32;0.13;;;0.13;;
19301;SDS011;9785;59.362;12.152;2022-11-15T05:46:02;0.67;;;0.20;;
19301;SDS011;9785;59.362;12.152;2022-11-15T05:48:32;0.40;;;0.10;;
19301;SDS011;9785;59.362;12.152;2022-11-15T05:51:02;0.57;;;0.10;;
19301;SDS011;9785;59.362;12.152;2022-11-15T05:53:32;0.20;;;0.20;;
19301;SDS011;9785;59.362;12.152;2022-11-15T05:56:02;0.10;;;0.10;;
19301;SDS011;9785;59.362;12.152;2022-11-15T05:58:32;1.90;;;0.20;;
19301;SDS011;9785;59.362;12.152;2022-11-15T06:01:00;0.10;;;0.10;;
19301;SDS011;9785;59.362;12.152;2022-11-15T06:03:29;0.10;;;0.10;;
19301;SDS011;9785;59.362;12.152;2022-11-15T06:05:58;0.20;;;0.20;;
19301;SDS011;9785;59.362;12.152;2022-11-15T06:08:26;0.10;;;0.10;;
19301;SDS011;9785;59.362;12.152;2022-11-15T06:10:55;0.00;;;0.00;;
19301;SDS011;9785;59.362;12.152;2022-11-15T06:13:25;0.10;;;0.10;;
19301;SDS011;9785;59.362;12.152;2022-11-15T06:15:55;0.10;;;0.10;;
19301;SDS011;9785;59.362;12.152;2022-11-15T06:18:23;0.10;;;0.10;;
19301;SDS011;9785;59.362;12.152;2022-11-15T06:20:52;0.10;;;0.10;;
19301;SDS011;9785;59.362;12.152;2022-11-15T06:23:20;0.10;;;0.10;;
19301;SDS011;9785;59.362;12.152;2022-11-15T06:25:51;0.00;;;0.00;;
19301;SDS011;9785;59.362;12.152;2022-11-15T06:28:20;0.20;;;0.03;;
19301;SDS011;9785;59.362;12.152;2022-11-15T06:30:50;0.00;;;0.00;;
19301;SDS011;9785;59.362;12.152;2022-11-15T06:33:18;0.10;;;0.00;;
19301;SDS011;9785;59.362;12.152;2022-11-15T06:35:47;0.67;;;0.20;;
19301;SDS011;9785;59.362;12.152;2022-11-15T06:38:15;0.10;;;0.10;;
19301;SDS011;9785;59.362;12.152;2022-11-15T06:40:44;0.20;;;0.20;;
19301;SDS011;9785;59.362;12.152;2022-11-15T06:43:13;0.30;;;0.20;;
19301;SDS011;9785;59.362;12.152;2022-11-15T06:45:42;0.07;;;0.07;;
19301;SDS011;9785;59.362;12.152;2022-11-15T06:48:11;0.43;;;0.20;;
19301;SDS011;9785;59.362;12.152;2022-11-15T06:50:40;0.20;;;0.20;;
19301;SDS011;9785;59.362;12.152;2022-11-15T06:53:09;0.20;;;0.20;;
19301;SDS011;9785;59.362;12.152;2022-11-15T06:55:37;0.27;;;0.27;;
19301;SDS011;9785;59.362;12.152;2022-11-15T06:58:06;0.10;;;0.10;;
19301;SDS011;9785;59.362;12.152;2022-11-15T07:00:34;1.03;;;0.30;;
19301;SDS011;9785;59.362;12.152;2022-11-15T07:03:04;1.40;;;0.40;;
19301;SDS011;9785;59.362;12.152;2022-11-15T07:05:34;0.50;;;0.50;;
19301;SDS011;9785;59.362;12.152;2022-11-15T07:08:03;0.40;;;0.40;;
19301;SDS011;9785;59.362;12.152;2022-11-15T07:10:32;0.30;;;0.30;;
19301;SDS011;9785;59.362;12.152;2022-11-15T07:13:01;0.40;;;0.40;;
19301;SDS011;9785;59.362;12.152;2022-11-15T07:15:29;0.43;;;0.40;;
19301;SDS011;9785;59.362;12.152;2022-11-15T07:18:00;0.40;;;0.40;;
19301;SDS011;9785;59.362;12.152;2022-11-15T07:20:28;0.20;;;0.20;;
19301;SDS011;9785;59.362;12.152;2022-11-15T07:23:00;0.30;;;0.30;;
19301;SDS011;9785;59.362;12.152;2022-11-15T07:25:29;2.20;;;0.30;;
19301;SDS011;9785;59.362;12.152;2022-11-15T07:27:58;0.37;;;0.37;;
19301;SDS011;9785;59.362;12.152;2022-11-15T07:30:27;0.40;;;0.40;;
19301;SDS011;9785;59.362;12.152;2022-11-15T07:32:56;0.47;;;0.43;;
19301;SDS011;9785;59.362;12.152;2022-11-15T07:35:25;1.50;;;0.50;;
19301;SDS011;9785;59.362;12.152;2022-11-15T07:37:54;0.30;;;0.30;;
19301;SDS011;9785;59.362;12.152;2022-11-15T07:40:25;0.37;;;0.37;;
19301;SDS011;9785;59.362;12.152;2022-11-15T07:42:58;2.70;;;0.60;;
19301;SDS011;9785;59.362;12.152;2022-11-15T07:45:27;1.77;;;0.50;;
19301;SDS011;9785;59.362;12.152;2022-11-15T07:47:55;0.50;;;0.50;;
19301;SDS011;9785;59.362;12.152;2022-11-15T07:50:24;0.40;;;0.40;;
19301;SDS011;9785;59.362;12.152;2022-11-15T07:52:53;0.70;;;0.50;;
19301;SDS011;9785;59.362;12.152;2022-11-15T07:55:23;2.47;;;0.67;;
19301;SDS011;9785;59.362;12.152;2022-11-15T07:57:53;0.40;;;0.40;;
19301;SDS011;9785;59.362;12.152;2022-11-15T08:00:21;0.40;;;0.40;;
19301;SDS011;9785;59.362;12.152;2022-11-15T08:02:50;1.43;;;0.50;;
19301;SDS011;9785;59.362;12.152;2022-11-15T08:05:18;0.30;;;0.30;;
19301;SDS011;9785;59.362;12.152;2022-11-15T08:07:47;3.00;;;0.50;;
19301;SDS011;9785;59.362;12.152;2022-11-15T08:10:18;1.50;;;0.60;;
19301;SDS011;9785;59.362;12.152;2022-11-15T08:12:46;0.40;;;0.40;;
19301;SDS011;9785;59.362;12.152;2022-11-15T08:15:17;0.47;;;0.47;;
19301;SDS011;9785;59.362;12.152;2022-11-15T08:17:45;0.27;;;0.27;;
19301;SDS011;9785;59.362;12.152;2022-11-15T08:20:14;0.47;;;0.43;;
19301;SDS011;9785;59.362;12.152;2022-11-15T08:22:42;0.50;;;0.40;;
19301;SDS011;9785;59.362;12.152;2022-11-15T08:25:11;0.50;;;0.50;;
19301;SDS011;9785;59.362;12.152;2022-11-15T08:27:40;0.30;;;0.30;;
19301;SDS011;9785;59.362;12.152;2022-11-15T08:30:09;1.13;;;0.50;;
19301;SDS011;9785;59.362;12.152;2022-11-15T08:32:39;0.30;;;0.30;;
19301;SDS011;9785;59.362;12.152;2022-11-15T08:35:08;0.43;;;0.43;;
19301;SDS011;9785;59.362;12.152;2022-11-15T08:37:36;1.53;;;0.40;;
19301;SDS011;9785;59.362;12.152;2022-11-15T08:40:05;1.03;;;0.20;;
19301;SDS011;9785;59.362;12.152;2022-11-15T08:42:34;0.40;;;0.40;;
19301;SDS011;9785;59.362;12.152;2022-11-15T08:45:03;0.30;;;0.30;;
19301;SDS011;9785;59.362;12.152;2022-11-15T08:47:32;0.40;;;0.40;;
19301;SDS011;9785;59.362;12.152;2022-11-15T08:50:02;0.43;;;0.43;;
19301;SDS011;9785;59.362;12.152;2022-11-15T08:52:30;0.50;;;0.50;;
19301;SDS011;9785;59.362;12.152;2022-11-15T08:54:59;2.40;;;0.50;;
19301;SDS011;9785;59.362;12.152;2022-11-15T08:57:28;1.07;;;0.40;;
19301;SDS011;9785;59.362;12.152;2022-11-15T08:59:57;2.10;;;0.70;;
19301;SDS011;9785;59.362;12.152;2022-11-15T09:02:26;0.60;;;0.60;;
19301;SDS011;9785;59.362;12.152;2022-11-15T09:04:54;1.60;;;0.43;;
19301;SDS011;9785;59.362;12.152;2022-11-15T09:07:24;0.73;;;0.60;;
19301;SDS011;9785;59.362;12.152;2022-11-15T09:09:53;1.63;;;0.43;;
19301;SDS011;9785;59.362;12.152;2022-11-15T09:12:21;0.47;;;0.47;;
19301;SDS011;9785;59.362;12.152;2022-11-15T09:14:50;2.13;;;0.50;;
19301;SDS011;9785;59.362;12.152;2022-11-15T09:17:18;2.00;;;0.50;;
19301;SDS011;9785;59.362;12.152;2022-11-15T09:20:07;0.50;;;0.50;;
19301;SDS011;9785;59.362;12.152;2022-11-15T09:22:37;1.77;;;0.67;;
19301;SDS011;9785;59.362;12.152;2022-11-15T09:25:06;0.60;;;0.60;;
19301;SDS011;9785;59.362;12.152;2022-11-15T09:27:36;1.60;;;0.73;;
19301;SDS011;9785;59.362;12.152;2022-11-15T09:30:05;0.60;;;0.60;;
19301;SDS011;9785;59.362;12.152;2022-11-15T09:32:34;0.70;;;0.70;;
19301;SDS011;9785;59.362;12.152;2022-11-15T09:35:05;0.70;;;0.70;;
19301;SDS011;9785;59.362;12.152;2022-11-15T09:37:33;4.23;;;0.80;;
19301;SDS011;9785;59.362;12.152;2022-11-15T09:40:04;1.03;;;0.87;;
19301;SDS011;9785;59.362;12.152;2022-11-15T09:42:36;0.70;;;0.70;;
19301;SDS011;9785;59.362;12.152;2022-11-15T09:45:10;1.10;;;0.50;;
19301;SDS011;9785;59.362;12.152;2022-11-15T09:47:46;0.50;;;0.40;;
19301;SDS011;9785;59.362;12.152;2022-11-15T09:50:27;0.63;;;0.50;;
19301;SDS011;9785;59.362;12.152;2022-11-15T09:52:57;0.30;;;0.30;;
19301;SDS011;9785;59.362;12.152;2022-11-15T09:55:29;0.50;;;0.50;;
19301;SDS011;9785;59.362;12.152;2022-11-15T09:58:02;0.23;;;0.23;;
19301;SDS011;9785;59.362;12.152;2022-11-15T10:00:33;1.20;;;0.90;;
19301;SDS011;9785;59.362;12.152;2022-11-15T10:03:13;0.47;;;0.40;;
19301;SDS011;9785;59.362;12.152;2022-11-15T10:05:43;1.20;;;0.50;;
19301;SDS011;9785;59.362;12.152;2022-11-15T10:08:24;0.37;;;0.17;;
19301;SDS011;9785;59.362;12.152;2022-11-15T10:10:57;0.10;;;0.10;;
19301;SDS011;9785;59.362;12.152;2022-11-15T10:13:46;1.27;;;0.33;;
19301;SDS011;9785;59.362;12.152;2022-11-15T10:16:26;0.30;;;0.30;;
19301;SDS011;9785;59.362;12.152;2022-11-15T10:19:01;0.73;;;0.30;;
19301;SDS011;9785;59.362;12.152;2022-11-15T10:21:33;0.60;;;0.30;;
19301;SDS011;9785;59.362;12.152;2022-11-15T10:24:06;0.63;;;0.30;;
19301;SDS011;9785;59.362;12.152;2022-11-15T10:26:43;0.20;;;0.20;;
19301;SDS011;9785;59.362;12.152;2022-11-15T10:29:17;0.40;;;0.30;;
19301;SDS011;9785;59.362;12.152;2022-11-15T10:31:52;0.10;;;0.10;;
19301;SDS011;9785;59.362;12.152;2022-11-15T10:34:22;0.50;;;0.20;;
19301;SDS011;9785;59.362;12.152;2022-11-15T10:36:54;0.80;;;0.20;;
19301;SDS011;9785;59.362;12.152;2022-11-15T10:39:23;0.20;;;0.10;;
19301;SDS011;9785;59.362;12.152;2022-11-15T10:41:53;0.10;;;0.10;;
19301;SDS011;9785;59.362;12.152;2022-11-15T10:44:24;0.63;;;0.20;;
19301;SDS011;9785;59.362;12.152;2022-11-15T10:49:56;0.20;;;0.20;;
19301;SDS011;9785;59.362;12.152;2022-11-15T10:52:25;2.30;;;0.30;;
19301;SDS011;9785;59.362;12.152;2022-11-15T10:54:55;0.43;;;0.40;;
19301;SDS011;9785;59.362;12.152;2022-11-15T10:57:27;0.20;;;0.20;;
19301;SDS011;9785;59.362;12.152;2022-11-15T10:59:57;0.37;;;0.37;;
19301;SDS011;9785;59.362;12.152;2022-11-15T11:02:31;0.30;;;0.30;;
19301;SDS011;9785;59.362;12.152;2022-11-15T11:05:00;1.27;;;0.30;;
19301;SDS011;9785;59.362;12.152;2022-11-15T11:07:30;0.63;;;0.23;;
19301;SDS011;9785;59.362;12.152;2022-11-15T11:10:00;1.53;;;0.50;;
19301;SDS011;9785;59.362;12.152;2022-11-15T11:12:49;0.53;;;0.50;;
19301;SDS011;9785;59.362;12.152;2022-11-15T11:15:18;0.43;;;0.30;;
19301;SDS011;9785;59.362;12.152;2022-11-15T11:17:51;1.13;;;0.20;;
19301;SDS011;9785;59.362;12.152;2022-11-15T11:20:21;2.27;;;0.40;;
19301;SDS011;9785;59.362;12.152;2022-11-15T11:25:40;1.40;;;0.60;;
19301;SDS011;9785;59.362;12.152;2022-11-15T11:28:17;1.27;;;0.50;;
19301;SDS011;9785;59.362;12.152;2022-11-15T11:30:52;0.57;;;0.57;;
19301;SDS011;9785;59.362;12.152;2022-11-15T11:33:26;1.57;;;0.47;;
19301;SDS011;9785;59.362;12.152;2022-11-15T11:35:59;1.73;;;0.40;;
19301;SDS011;9785;59.362;12.152;2022-11-15T11:38:38;0.63;;;0.50;;
19301;SDS011;9785;59.362;12.152;2022-11-15T11:41:10;1.07;;;0.50;;
19301;SDS011;9785;59.362;12.152;2022-11-15T11:43:46;0.30;;;0.30;;
19301;SDS011;9785;59.362;12.152;2022-11-15T11:46:24;1.77;;;0.60;;
19301;SDS011;9785;59.362;12.152;2022-11-15T11:48:57;2.10;;;0.67;;
19301;SDS011;9785;59.362;12.152;2022-11-15T11:51:28;0.50;;;0.50;;
19301;SDS011;9785;59.362;12.152;2022-11-15T11:54:00;1.00;;;0.53;;
19301;SDS011;9785;59.362;12.152;2022-11-15T11:56:32;2.13;;;0.60;;
19301;SDS011;9785;59.362;12.152;2022-11-15T11:59:05;1.40;;;0.50;;
19301;SDS011;9785;59.362;12.152;2022-11-15T12:01:36;3.47;;;0.60;;
19301;SDS011;9785;59.362;12.152;2022-11-15T12:04:08;2.50;;;0.43;;
19301;SDS011;9785;59.362;12.152;2022-11-15T12:06:40;0.50;;;0.50;;
19301;SDS011;9785;59.362;12.152;2022-11-15T12:09:12;1.43;;;0.40;;
19301;SDS011;9785;59.362;12.152;2022-11-15T12:11:46;2.03;;;0.37;;
19301;SDS011;9785;59.362;12.152;2022-11-15T12:14:22;1.00;;;0.40;;
19301;SDS011;9785;59.362;12.152;2022-11-15T12:16:52;1.17;;;0.60;;
19301;SDS011;9785;59.362;12.152;2022-11-15T12:19:21;2.43;;;0.97;;
19301;SDS011;9785;59.362;12.152;2022-11-15T12:21:50;1.07;;;0.50;;
19301;SDS011;9785;59.362;12.152;2022-11-15T12:24:22;1.60;;;0.50;;
19301;SDS011;9785;59.362;12.152;2022-11-15T12:26:54;0.50;;;0.50;;
19301;SDS011;9785;59.362;12.152;2022-11-15T12:29:27;2.27;;;0.47;;
19301;SDS011;9785;59.362;12.152;2022-11-15T12:31:57;0.60;;;0.60;;
19301;SDS011;9785;59.362;12.152;2022-11-15T12:34:39;1.30;;;0.53;;
19301;SDS011;9785;59.362;12.152;2022-11-15T12:45:42;1.73;;;0.60;;
19301;SDS011;9785;59.362;12.152;2022-11-15T12:50:58;0.40;;;0.33;;
19301;SDS011;9785;59.362;12.152;2022-11-15T12:53:28;1.13;;;0.43;;
19301;SDS011;9785;59.362;12.152;2022-11-15T12:58:54;1.20;;;0.50;;
19301;SDS011;9785;59.362;12.152;2022-11-15T13:04:15;1.50;;;0.50;;
19301;SDS011;9785;59.362;12.152;2022-11-15T13:06:51;1.90;;;0.50;;
19301;SDS011;9785;59.362;12.152;2022-11-15T13:12:07;1.23;;;0.50;;
19301;SDS011;9785;59.362;12.152;2022-11-15T13:14:44;1.37;;;1.27;;
19301;SDS011;9785;59.362;12.152;2022-11-15T13:17:17;0.80;;;0.40;;
19301;SDS011;9785;59.362;12.152;2022-11-15T13:19:53;2.63;;;0.60;;
19301;SDS011;9785;59.362;12.152;2022-11-15T13:22:26;1.40;;;0.63;;
19301;SDS011;9785;59.362;12.152;2022-11-15T13:25:15;0.53;;;0.53;;
19301;SDS011;9785;59.362;12.152;2022-11-15T13:27:46;1.23;;;0.50;;
19301;SDS011;9785;59.362;12.152;2022-11-15T13:30:18;1.43;;;0.90;;
19301;SDS011;9785;59.362;12.152;2022-11-15T13:32:47;0.50;;;0.50;;
19301;SDS011;9785;59.362;12.152;2022-11-15T13:35:22;0.93;;;0.60;;
19301;SDS011;9785;59.362;12.152;2022-11-15T13:37:51;1.50;;;0.60;;
19301;SDS011;9785;59.362;12.152;2022-11-15T13:40:23;1.23;;;0.50;;
19301;SDS011;9785;59.362;12.152;2022-11-15T13:42:53;0.90;;;0.60;;
19301;SDS011;9785;59.362;12.152;2022-11-15T13:45:22;1.53;;;0.50;;
19301;SDS011;9785;59.362;12.152;2022-11-15T13:47:53;1.53;;;0.60;;
19301;SDS011;9785;59.362;12.152;2022-11-15T13:50:25;1.93;;;0.70;;
19301;SDS011;9785;59.362;12.152;2022-11-15T13:52:55;0.80;;;0.80;;
19301;SDS011;9785;59.362;12.152;2022-11-15T13:55:26;2.07;;;0.63;;
19301;SDS011;9785;59.362;12.152;2022-11-15T13:57:55;0.90;;;0.70;;
19301;SDS011;9785;59.362;12.152;2022-11-15T14:00:26;0.63;;;0.57;;
19301;SDS011;9785;59.362;12.152;2022-11-15T14:02:55;0.83;;;0.70;;
19301;SDS011;9785;59.362;12.152;2022-11-15T14:05:25;3.07;;;0.70;;
19301;SDS011;9785;59.362;12.152;2022-11-15T14:07:55;1.13;;;0.60;;
19301;SDS011;9785;59.362;12.152;2022-11-15T14:10:25;1.30;;;0.60;;
19301;SDS011;9785;59.362;12.152;2022-11-15T14:12:55;1.03;;;0.50;;
19301;SDS011;9785;59.362;12.152;2022-11-15T14:15:25;2.03;;;0.87;;
19301;SDS011;9785;59.362;12.152;2022-11-15T14:17:54;2.00;;;0.63;;
19301;SDS011;9785;59.362;12.152;2022-11-15T14:20:28;0.60;;;0.60;;
19301;SDS011;9785;59.362;12.152;2022-11-15T14:22:59;1.73;;;1.00;;
19301;SDS011;9785;59.362;12.152;2022-11-15T14:25:28;1.50;;;0.73;;
19301;SDS011;9785;59.362;12.152;2022-11-15T14:28:13;1.07;;;0.60;;
19301;SDS011;9785;59.362;12.152;2022-11-15T14:30:43;2.53;;;0.70;;
19301;SDS011;9785;59.362;12.152;2022-11-15T14:33:20;0.50;;;0.50;;
19301;SDS011;9785;59.362;12.152;2022-11-15T14:35:50;1.80;;;0.60;;
19301;SDS011;9785;59.362;12.152;2022-11-15T14:38:19;0.73;;;0.73;;
19301;SDS011;9785;59.362;12.152;2022-11-15T14:40:48;1.17;;;0.60;;
19301;SDS011;9785;59.362;12.152;2022-11-15T14:43:17;1.70;;;0.73;;
19301;SDS011;9785;59.362;12.152;2022-11-15T14:45:45;1.20;;;0.70;;
19301;SDS011;9785;59.362;12.152;2022-11-15T14:48:16;0.70;;;0.70;;
19301;SDS011;9785;59.362;12.152;2022-11-15T14:50:45;1.30;;;0.43;;
19301;SDS011;9785;59.362;12.152;2022-11-15T14:53:15;2.43;;;0.80;;
19301;SDS011;9785;59.362;12.152;2022-11-15T14:55:44;1.17;;;0.70;;
19301;SDS011;9785;59.362;12.152;2022-11-15T14:58:13;0.50;;;0.50;;
19301;SDS011;9785;59.362;12.152;2022-11-15T15:00:41;0.70;;;0.70;;
19301;SDS011;9785;59.362;12.152;2022-11-15T15:03:12;1.73;;;0.60;;
19301;SDS011;9785;59.362;12.152;2022-11-15T15:05:41;1.10;;;0.63;;
19301;SDS011;9785;59.362;12.152;2022-11-15T15:08:10;0.60;;;0.60;;
19301;SDS011;9785;59.362;12.152;2022-11-15T15:10:41;0.53;;;0.53;;
19301;SDS011;9785;59.362;12.152;2022-11-15T15:13:13;0.97;;;0.53;;
19301;SDS011;9785;59.362;12.152;2022-11-15T15:15:43;0.60;;;0.60;;
19301;SDS011;9785;59.362;12.152;2022-11-15T15:18:12;0.80;;;0.77;;
19301;SDS011;9785;59.362;12.152;2022-11-15T15:20:41;1.30;;;0.57;;
19301;SDS011;9785;59.362;12.152;2022-11-15T15:23:15;0.70;;;0.60;;
19301;SDS011;9785;59.362;12.152;2022-11-15T15:25:45;0.50;;;0.50;;
19301;SDS011;9785;59.362;12.152;2022-11-15T15:28:15;1.80;;;0.63;;
19301;SDS011;9785;59.362;12.152;2022-11-15T15:30:44;0.77;;;0.60;;
19301;SDS011;9785;59.362;12.152;2022-11-15T15:33:12;1.60;;;0.70;;
19301;SDS011;9785;59.362;12.152;2022-11-15T15:35:41;0.87;;;0.60;;